Time;durP1;ratioP1;P1;durP2;ratioP2;P2;SDS_P1;SDS_P2;PMS_P1;PMS_P2;Temp;Humidity;BMP_temperature;BMP_pressure;BME280_temperature;BME280_humidity;BME280_pressure;Samples;Min_cycle;Max_cycle;Signal;HPM_P1;HPM_P2
2023/03/26 00:00:53;;;;;;;;;;;;;;;;;;4969819;28;20417;-80
2023/03/26 00:03:19;;;;;;;;;;;;;;;;;;4987135;28;19971;-79
2023/03/26 00:05:48;;;;;;;;;;;;;;;;;;4986411;28;19941;-81
2023/03/26 00:08:13;;;;;;;;;;;;;;;;;;4955373;28;19914;-80
2023/03/26 00:10:39;;;;;;;;;;;;;;;;;;4988607;28;20300;-79
2023/03/26 00:13:04;;;;;;;;;;;;;;;;;;4971530;28;20421;-79
2023/03/26 00:15:30;;;;;;;;;;;;;;;;;;4972128;28;19918;-80
2023/03/26 00:17:55;;;;;;;;;;;;;;;;;;4989733;28;19918;-80
2023/03/26 00:20:20;;;;;;;;;;;;;;;;;;4987955;28;19985;-80
2023/03/26 00:22:46;;;;;;;;;;;;;;;;;;4987998;28;19920;-80
2023/03/26 00:25:12;;;;;;;;;;;;;;;;;;4991090;28;20389;-79
2023/03/26 00:27:38;;;;;;;;;;;;;;;;;;4986744;28;19921;-80
2023/03/26 00:30:03;;;;;;;;;;;;;;;;;;5011682;28;19925;-79
2023/03/26 00:32:29;;;;;;;;;;;;;;;;;;4985953;28;19898;-80
2023/03/26 00:34:55;;;;;;;;;;;;;;;;;;5000961;28;19922;-80
2023/03/26 00:37:25;;;;;;;;;;;;;;;;;;4983814;28;19906;-80
2023/03/26 00:39:50;;;;;;;;;;;;;;;;;;5002409;28;19925;-79
2023/03/26 00:42:16;;;;;;;;;;;;;;;;;;5017505;28;19918;-79
2023/03/26 00:44:41;;;;;;;;;;;;;;;;;;4999835;28;19942;-80
2023/03/26 00:47:07;;;;;;;;;;;;;;;;;;4982593;28;19918;-80
2023/03/26 00:49:32;;;;;;;;;;;;;;;;;;4982915;28;19914;-80
2023/03/26 00:51:58;;;;;;;;;;;;;;;;;;4998900;28;19914;-80
2023/03/26 00:54:23;;;;;;;;;;;;;;;;;;4999873;28;20285;-81
2023/03/26 00:56:49;;;;;;;;;;;;;;;;;;4983136;28;19925;-79
2023/03/26 00:59:15;;;;;;;;;;;;;;;;;;4999346;28;19992;-80
2023/03/26 01:01:43;;;;;;;;;;;;;;;;;;4984005;28;20219;-79
2023/03/26 01:04:11;;;;;;;;;;;;;;;;;;4999720;28;20397;-79
2023/03/26 01:06:37;;;;;;;;;;;;;;;;;;5000441;28;19921;-79
2023/03/26 01:09:03;;;;;;;;;;;;;;;;;;4967859;28;19917;-80
2023/03/26 01:11:29;;;;;;;;;;;;;;;;;;4983725;28;19920;-80
2023/03/26 01:13:54;;;;;;;;;;;;;;;;;;4999287;28;20004;-80
2023/03/26 01:16:20;;;;;;;;;;;;;;;;;;4983091;28;20001;-80
2023/03/26 01:18:47;;;;;;;;;;;;;;;;;;4999113;28;19917;-81
2023/03/26 01:21:13;;;;;;;;;;;;;;;;;;4999666;28;19921;-80
2023/03/26 01:23:39;;;;;;;;;;;;;;;;;;5000613;28;19914;-79
2023/03/26 01:26:04;;;;;;;;;;;;;;;;;;4966693;28;19997;-81
2023/03/26 01:28:30;;;;;;;;;;;;;;;;;;5000458;28;19914;-80
2023/03/26 01:31:00;;;;;;;;;;;;;;;;;;5000589;28;19917;-80
2023/03/26 01:33:28;;;;;;;;;;;;;;;;;;4999055;28;19913;-79
2023/03/26 01:35:54;;;;;;;;;;;;;;;;;;4999328;28;19925;-80
2023/03/26 01:38:21;;;;;;;;;;;;;;;;;;4999469;28;19942;-79
2023/03/26 01:40:48;;;;;;;;;;;;;;;;;;5000470;28;19913;-80
2023/03/26 01:43:13;;;;;;;;;;;;;;;;;;4999304;28;19977;-80
2023/03/26 01:45:39;;;;;;;;;;;;;;;;;;4997934;28;19953;-79
2023/03/26 01:48:05;;;;;;;;;;;;;;;;;;4981347;28;20381;-79
2023/03/26 01:50:30;;;;;;;;;;;;;;;;;;4996932;28;19920;-80
2023/03/26 01:52:55;;;;;;;;;;;;;;;;;;4997325;28;19920;-80
2023/03/26 01:55:21;;;;;;;;;;;;;;;;;;4980342;28;19922;-79
2023/03/26 01:57:46;;;;;;;;;;;;;;;;;;4980411;28;20544;-80
2023/03/26 02:00:12;;;;;;;;;;;;;;;;;;4998429;28;19914;-79
2023/03/26 02:02:41;;;;;;;;;;;;;;;;;;4999016;28;19914;-80
2023/03/26 02:05:07;;;;;;;;;;;;;;;;;;4980803;28;19914;-80
2023/03/26 02:07:36;;;;;;;;;;;;;;;;;;4981728;28;19941;-80
2023/03/26 02:10:05;;;;;;;;;;;;;;;;;;4998232;28;19957;-79
2023/03/26 02:12:30;;;;;;;;;;;;;;;;;;4998122;28;20405;-79
2023/03/26 02:14:55;;;;;;;;;;;;;;;;;;4965579;28;19914;-79
2023/03/26 02:17:23;;;;;;;;;;;;;;;;;;4983092;28;19925;-79
2023/03/26 02:19:48;;;;;;;;;;;;;;;;;;4950971;28;19949;-80
2023/03/26 02:22:17;;;;;;;;;;;;;;;;;;4968134;28;19913;-80
2023/03/26 02:24:43;;;;;;;;;;;;;;;;;;4970292;28;19913;-80
2023/03/26 02:27:11;;;;;;;;;;;;;;;;;;4986377;28;19937;-80
2023/03/26 02:29:38;;;;;;;;;;;;;;;;;;4986798;28;19976;-80
2023/03/26 02:32:04;;;;;;;;;;;;;;;;;;5002933;28;19996;-80
2023/03/26 02:34:30;;;;;;;;;;;;;;;;;;5002735;28;19914;-79
2023/03/26 02:36:56;;;;;;;;;;;;;;;;;;5002950;28;19960;-79
2023/03/26 02:39:22;;;;;;;;;;;;;;;;;;5002412;28;19945;-80
2023/03/26 02:41:53;;;;;;;;;;;;;;;;;;5002336;28;19918;-80
2023/03/26 02:44:19;;;;;;;;;;;;;;;;;;5000650;28;19944;-80
2023/03/26 02:47:07;;;;;;;;;;;;;;;;;;5000379;28;19957;-79
2023/03/26 02:49:51;;;;;;;;;;;;;;;;;;5000513;28;20366;-80
2023/03/26 02:52:37;;;;;;;;;;;;;;;;;;4990178;28;19921;-79
2023/03/26 02:55:02;;;;;;;;;;;;;;;;;;4982523;28;19917;-80
2023/03/26 02:57:28;;;;;;;;;;;;;;;;;;4983055;28;19984;-79
2023/03/26 02:59:53;;;;;;;;;;;;;;;;;;4999458;28;19918;-80
2023/03/26 03:02:37;;;;;;;;;;;;;;;;;;4981371;28;19917;-80
2023/03/26 03:05:32;;;;;;;;;;;;;;;;;;4996532;28;19918;-80
2023/03/26 03:08:17;;;;;;;;;;;;;;;;;;4996544;28;19960;-79
2023/03/26 03:10:57;;;;;;;;;;;;;;;;;;4981148;28;19913;-79
2023/03/26 03:13:35;;;;;;;;;;;;;;;;;;4998048;28;19970;-80
2023/03/26 03:16:00;;;;;;;;;;;;;;;;;;4965702;28;19918;-79
2023/03/26 03:18:26;;;;;;;;;;;;;;;;;;5000334;28;20408;-80
2023/03/26 03:20:52;;;;;;;;;;;;;;;;;;4967939;28;20393;-79
2023/03/26 03:23:18;;;;;;;;;;;;;;;;;;4968948;28;19948;-80
2023/03/26 03:25:43;;;;;;;;;;;;;;;;;;5001135;28;20297;-80
2023/03/26 03:28:09;;;;;;;;;;;;;;;;;;4969564;28;19914;-80
2023/03/26 03:30:34;;;;;;;;;;;;;;;;;;4999784;28;19952;-80
2023/03/26 03:33:19;;;;;;;;;;;;;;;;;;4999054;28;19996;-80
2023/03/26 03:35:45;;;;;;;;;;;;;;;;;;4999695;28;19969;-80
2023/03/26 03:38:10;;;;;;;;;;;;;;;;;;4952026;28;19913;-80
2023/03/26 03:40:44;;;;;;;;;;;;;;;;;;4968436;28;19913;-79
2023/03/26 03:43:10;;;;;;;;;;;;;;;;;;4984893;28;20002;-79
2023/03/26 03:45:43;;;;;;;;;;;;;;;;;;4985658;28;19921;-80
2023/03/26 03:48:17;;;;;;;;;;;;;;;;;;4984632;28;19913;-80
2023/03/26 03:50:45;;;;;;;;;;;;;;;;;;4969429;28;19969;-80
2023/03/26 03:53:24;;;;;;;;;;;;;;;;;;4985145;28;19942;-80
2023/03/26 03:55:54;;;;;;;;;;;;;;;;;;4998983;28;19918;-80
2023/03/26 03:58:22;;;;;;;;;;;;;;;;;;4995755;28;19918;-80
2023/03/26 04:00:49;;;;;;;;;;;;;;;;;;4946667;28;20385;-80
2023/03/26 04:03:40;;;;;;;;;;;;;;;;;;4995541;28;19914;-80
2023/03/26 04:06:10;;;;;;;;;;;;;;;;;;4962847;28;19914;-79
2023/03/26 04:08:37;;;;;;;;;;;;;;;;;;4964049;28;19914;-79
2023/03/26 04:11:04;;;;;;;;;;;;;;;;;;4971216;28;19906;-80
2023/03/26 04:14:02;;;;;;;;;;;;;;;;;;4999667;28;19917;-79
2023/03/26 04:16:48;;;;;;;;;;;;;;;;;;4982906;28;19945;-79
2023/03/26 04:19:13;;;;;;;;;;;;;;;;;;4983539;28;19918;-79
2023/03/26 04:21:41;;;;;;;;;;;;;;;;;;4982040;28;19924;-79
2023/03/26 04:24:07;;;;;;;;;;;;;;;;;;5013891;28;19922;-80
2023/03/26 04:27:08;;;;;;;;;;;;;;;;;;4904355;29;19947;-80
2023/03/26 04:29:37;;;;;;;;;;;;;;;;;;4956980;28;19941;-79
2023/03/26 04:32:05;;;;;;;;;;;;;;;;;;5014749;28;19961;-80
2023/03/26 04:34:31;;;;;;;;;;;;;;;;;;4997767;28;19913;-79
2023/03/26 04:37:10;;;;;;;;;;;;;;;;;;4998706;28;20004;-80
2023/03/26 04:39:43;;;;;;;;;;;;;;;;;;4998975;28;19914;-80
2023/03/26 04:42:21;;;;;;;;;;;;;;;;;;5000104;28;20437;-79
2023/03/26 04:45:05;;;;;;;;;;;;;;;;;;4982128;28;19917;-80
2023/03/26 04:47:30;;;;;;;;;;;;;;;;;;4981702;28;19921;-79
2023/03/26 04:49:56;;;;;;;;;;;;;;;;;;4999406;28;19992;-80
2023/03/26 04:52:21;;;;;;;;;;;;;;;;;;4997619;28;19925;-80
2023/03/26 04:54:56;;;;;;;;;;;;;;;;;;4998925;28;19917;-79
2023/03/26 04:57:22;;;;;;;;;;;;;;;;;;4997887;28;19969;-79
2023/03/26 04:59:52;;;;;;;;;;;;;;;;;;4982458;28;19977;-80
2023/03/26 05:02:17;;;;;;;;;;;;;;;;;;4981800;28;19913;-80
2023/03/26 05:04:51;;;;;;;;;;;;;;;;;;4996775;28;19968;-80
2023/03/26 05:07:18;;;;;;;;;;;;;;;;;;4965078;28;19914;-79
2023/03/26 05:09:46;;;;;;;;;;;;;;;;;;4997383;28;19910;-80
2023/03/26 05:12:15;;;;;;;;;;;;;;;;;;4981603;28;20017;-80
2023/03/26 05:15:01;;;;;;;;;;;;;;;;;;4983693;28;19924;-79
2023/03/26 05:17:48;;;;;;;;;;;;;;;;;;4968143;28;19969;-81
2023/03/26 05:20:21;;;;;;;;;;;;;;;;;;4982716;28;19913;-80
2023/03/26 05:22:47;;;;;;;;;;;;;;;;;;4965291;28;20394;-80
2023/03/26 05:25:22;;;;;;;;;;;;;;;;;;4966989;28;19921;-79
2023/03/26 05:27:47;;;;;;;;;;;;;;;;;;4998125;28;20293;-79
2023/03/26 05:30:13;;;;;;;;;;;;;;;;;;4981608;28;19914;-79
2023/03/26 05:32:42;;;;;;;;;;;;;;;;;;4998912;28;19921;-80
2023/03/26 05:35:08;;;;;;;;;;;;;;;;;;4981598;28;19914;-80
2023/03/26 05:37:33;;;;;;;;;;;;;;;;;;4982272;28;19914;-80
2023/03/26 05:40:08;;;;;;;;;;;;;;;;;;5002521;28;19913;-80
2023/03/26 05:42:44;;;;;;;;;;;;;;;;;;5004280;28;19913;-80
2023/03/26 05:45:29;;;;;;;;;;;;;;;;;;4970268;28;19914;-79
2023/03/26 05:47:55;;;;;;;;;;;;;;;;;;4966404;28;19921;-80
2023/03/26 05:50:23;;;;;;;;;;;;;;;;;;5007967;28;19914;-79
2023/03/26 05:52:50;;;;;;;;;;;;;;;;;;4995001;28;19969;-80
2023/03/26 05:55:34;;;;;;;;;;;;;;;;;;5011484;28;19972;-79
2023/03/26 05:58:18;;;;;;;;;;;;;;;;;;5005863;28;19921;-80
2023/03/26 06:01:19;;;;;;;;;;;;;;;;;;4997472;28;19914;-79
2023/03/26 06:04:23;;;;;;;;;;;;;;;;;;4972301;28;20278;-80
2023/03/26 06:07:09;;;;;;;;;;;;;;;;;;4998864;28;19921;-80
2023/03/26 06:09:37;;;;;;;;;;;;;;;;;;4965564;28;19914;-79
2023/03/26 06:12:02;;;;;;;;;;;;;;;;;;4965558;28;19921;-79
2023/03/26 06:14:30;;;;;;;;;;;;;;;;;;4981218;28;19914;-79
2023/03/26 06:17:15;;;;;;;;;;;;;;;;;;4985584;28;20005;-80
2023/03/26 06:20:06;;;;;;;;;;;;;;;;;;5067988;23;19909;-83
2023/03/26 06:22:39;;;;;;;;;;;;;;;;;;4987847;28;19902;-83
2023/03/26 06:25:35;;;;;;;;;;;;;;;;;;4998034;28;19918;-83
2023/03/26 06:28:19;;;;;;;;;;;;;;;;;;4972504;28;20364;-83
2023/03/26 06:31:05;;;;;;;;;;;;;;;;;;5019126;28;19914;-83
2023/03/26 06:33:39;;;;;;;;;;;;;;;;;;4970138;28;19897;-83
2023/03/26 06:36:06;;;;;;;;;;;;;;;;;;5000269;28;19986;-83
2023/03/26 06:38:32;;;;;;;;;;;;;;;;;;4968902;28;19965;-83
2023/03/26 06:41:05;;;;;;;;;;;;;;;;;;4970806;28;19905;-83
2023/03/26 06:43:51;;;;;;;;;;;;;;;;;;4989603;28;19909;-83
2023/03/26 06:49:19;;;;;;;;;;;;;;;;;;5572792;23;19909;-83
2023/03/26 06:52:03;;;;;;;;;;;;;;;;;;5005426;28;19988;-81
2023/03/26 06:54:48;;;;;;;;;;;;;;;;;;4998731;28;19921;-82
2023/03/26 06:57:44;;;;;;;;;;;;;;;;;;4948847;28;19964;-82
2023/03/26 07:00:33;;;;;;;;;;;;;;;;;;4967519;28;19910;-82
2023/03/26 07:03:17;;;;;;;;;;;;;;;;;;4986460;28;19918;-82
2023/03/26 07:06:01;;;;;;;;;;;;;;;;;;5015409;28;19913;-82
2023/03/26 07:08:56;;;;;;;;;;;;;;;;;;5013876;28;19945;-83
2023/03/26 07:11:25;;;;;;;;;;;;;;;;;;4997157;28;19913;-83
2023/03/26 07:14:33;;;;;;;;;;;;;;;;;;4979625;28;19897;-83
2023/03/26 07:17:30;;;;;;;;;;;;;;;;;;4949899;28;19929;-83
2023/03/26 07:20:09;;;;;;;;;;;;;;;;;;4999919;28;19897;-83
2023/03/26 07:22:35;;;;;;;;;;;;;;;;;;4983832;28;19924;-83
2023/03/26 07:25:27;;;;;;;;;;;;;;;;;;4998298;28;19913;-84
2023/03/26 07:28:11;;;;;;;;;;;;;;;;;;5004643;28;19901;-84
2023/03/26 07:30:58;;;;;;;;;;;;;;;;;;4987641;28;19977;-83
2023/03/26 07:33:36;;;;;;;;;;;;;;;;;;4993393;28;19918;-81
2023/03/26 07:36:18;;;;;;;;;;;;;;;;;;4978284;28;19977;-82
2023/03/26 07:38:50;;;;;;;;;;;;;;;;;;4995484;28;20004;-80
2023/03/26 07:41:37;;;;;;;;;;;;;;;;;;5014773;28;19918;-82
2023/03/26 07:44:22;;;;;;;;;;;;;;;;;;5014891;28;20292;-83
2023/03/26 07:47:21;;;;;;;;;;;;;;;;;;4987053;28;19898;-83
2023/03/26 07:50:05;;;;;;;;;;;;;;;;;;4998996;28;19973;-83
2023/03/26 07:52:50;;;;;;;;;;;;;;;;;;4967793;28;19974;-83
2023/03/26 07:55:29;;;;;;;;;;;;;;;;;;5001684;28;19916;-82
2023/03/26 07:58:13;;;;;;;;;;;;;;;;;;4984880;28;19898;-82
2023/03/26 08:00:59;;;;;;;;;;;;;;;;;;5000268;28;19918;-79
2023/03/26 08:03:24;;;;;;;;;;;;;;;;;;4988375;28;19948;-82
2023/03/26 08:05:53;;;;;;;;;;;;;;;;;;5173736;23;19927;-80
2023/03/26 08:08:39;;;;;;;;;;;;;;;;;;4991453;28;19918;-85
2023/03/26 08:11:25;;;;;;;;;;;;;;;;;;5004393;28;19906;-84
2023/03/26 08:13:56;;;;;;;;;;;;;;;;;;4990199;28;19965;-86
2023/03/26 08:16:22;;;;;;;;;;;;;;;;;;5004334;28;19910;-85
2023/03/26 08:18:48;;;;;;;;;;;;;;;;;;4998410;28;20013;-84
2023/03/26 08:21:15;;;;;;;;;;;;;;;;;;4991239;28;19918;-84
2023/03/26 08:23:45;;;;;;;;;;;;;;;;;;4990520;28;19913;-82
2023/03/26 08:26:11;;;;;;;;;;;;;;;;;;4974977;28;19913;-84
2023/03/26 08:28:37;;;;;;;;;;;;;;;;;;4957617;28;19948;-82
2023/03/26 08:31:03;;;;;;;;;;;;;;;;;;5019332;28;19910;-83
2023/03/26 08:33:29;;;;;;;;;;;;;;;;;;4988395;28;19905;-84
2023/03/26 08:35:56;;;;;;;;;;;;;;;;;;4972532;28;19926;-82
2023/03/26 08:41:03;;;;;;;;;;;;;;;;;;5787618;23;19926;-83
2023/03/26 08:43:32;;;;;;;;;;;;;;;;;;4971039;28;19914;-82
2023/03/26 08:46:02;;;;;;;;;;;;;;;;;;4986265;28;19925;-87
2023/03/26 08:48:28;;;;;;;;;;;;;;;;;;5014988;28;19910;-87
2023/03/26 08:51:04;;;;;;;;;;;;;;;;;;4985066;28;19977;-84
2023/03/26 08:56:50;;;;;;;;;;;;;;;;;;5796770;23;19914;-85
2023/03/26 08:59:27;;;;;;;;;;;;;;;;;;4984664;28;19925;-88
2023/03/26 09:04:37;;;;;;;;;;;;;;;;;;5539712;23;19971;-89
2023/03/26 09:07:05;;;;;;;;;;;;;;;;;;4976061;28;19922;-89
2023/03/26 09:09:31;;;;;;;;;;;;;;;;;;4944793;28;19922;-90
2023/03/26 09:12:00;;;;;;;;;;;;;;;;;;4969372;28;20006;-86
2023/03/26 09:14:26;;;;;;;;;;;;;;;;;;4983806;28;19981;-87
2023/03/26 09:17:01;;;;;;;;;;;;;;;;;;4932333;28;20270;-91
2023/03/26 09:19:27;;;;;;;;;;;;;;;;;;4946513;28;20460;-89
2023/03/26 09:21:52;;;;;;;;;;;;;;;;;;4947154;28;19914;-93
2023/03/26 09:24:24;;;;;;;;;;;;;;;;;;4963055;28;19997;-90
2023/03/26 09:26:50;;;;;;;;;;;;;;;;;;4962522;28;19921;-87
2023/03/26 09:29:15;;;;;;;;;;;;;;;;;;4981987;28;19918;-87
2023/03/26 09:31:44;;;;;;;;;;;;;;;;;;4987614;28;19906;-85
2023/03/26 09:34:09;;;;;;;;;;;;;;;;;;4984589;28;19970;-85
2023/03/26 09:36:35;;;;;;;;;;;;;;;;;;5380313;23;19925;-87
2023/03/26 09:39:00;;;;;;;;;;;;;;;;;;4982818;28;20375;-89
2023/03/26 09:41:26;;;;;;;;;;;;;;;;;;4980671;28;19914;-89
2023/03/26 09:44:04;;;;;;;;;;;;;;;;;;4960508;28;19921;-86
2023/03/26 09:46:33;;;;;;;;;;;;;;;;;;4966626;28;19901;-84
2023/03/26 09:48:58;;;;;;;;;;;;;;;;;;4956621;28;19961;-87
2023/03/26 09:54:20;;;;;;;;;;;;;;;;;;5005134;28;19989;-88
2023/03/26 09:56:46;;;;;;;;;;;;;;;;;;4969086;28;19921;-90
2023/03/26 09:59:12;;;;;;;;;;;;;;;;;;4967967;28;19914;-87
2023/03/26 10:01:37;;;;;;;;;;;;;;;;;;4984515;28;19913;-84
2023/03/26 10:04:03;;;;;;;;;;;;;;;;;;4978806;28;19914;-82
2023/03/26 10:06:28;;;;;;;;;;;;;;;;;;4966676;28;19964;-90
2023/03/26 10:08:57;;;;;;;;;;;;;;;;;;4950966;28;19914;-90
2023/03/26 10:11:32;;;;;;;;;;;;;;;;;;4947195;28;19977;-91
2023/03/26 10:14:04;;;;;;;;;;;;;;;;;;4963473;28;19949;-91
2023/03/26 10:16:40;;;;;;;;;;;;;;;;;;4961850;28;19921;-90
2023/03/26 10:19:12;;;;;;;;;;;;;;;;;;5011546;23;19926;-88
2023/03/26 10:21:40;;;;;;;;;;;;;;;;;;4957939;28;20370;-90
2023/03/26 10:24:06;;;;;;;;;;;;;;;;;;4973411;28;19918;-89
2023/03/26 10:26:32;;;;;;;;;;;;;;;;;;4941122;28;20005;-90
2023/03/26 10:28:58;;;;;;;;;;;;;;;;;;4941936;28;19973;-90
2023/03/26 10:31:30;;;;;;;;;;;;;;;;;;4959247;28;19961;-89
2023/03/26 10:34:02;;;;;;;;;;;;;;;;;;4942535;28;19914;-90
2023/03/26 10:36:28;;;;;;;;;;;;;;;;;;4942695;28;20013;-88
2023/03/26 10:38:53;;;;;;;;;;;;;;;;;;4981509;28;19920;-90
2023/03/26 10:41:20;;;;;;;;;;;;;;;;;;4942472;28;19921;-88
2023/03/26 10:43:48;;;;;;;;;;;;;;;;;;4942021;28;20274;-88
2023/03/26 10:46:14;;;;;;;;;;;;;;;;;;4942562;28;20285;-89
2023/03/26 10:48:41;;;;;;;;;;;;;;;;;;4943877;28;19914;-88
2023/03/26 10:51:11;;;;;;;;;;;;;;;;;;4944411;28;19914;-90
2023/03/26 10:53:37;;;;;;;;;;;;;;;;;;4942541;28;20374;-90
2023/03/26 10:59:21;;;;;;;;;;;;;;;;;;4974394;28;19914;-90
2023/03/26 11:01:51;;;;;;;;;;;;;;;;;;4970754;28;19918;-90
2023/03/26 11:04:17;;;;;;;;;;;;;;;;;;4973817;28;19920;-87
2023/03/26 11:06:42;;;;;;;;;;;;;;;;;;4973021;28;19910;-90
2023/03/26 11:09:08;;;;;;;;;;;;;;;;;;4957677;28;19914;-90
2023/03/26 11:11:34;;;;;;;;;;;;;;;;;;4958210;28;19976;-89
2023/03/26 11:14:00;;;;;;;;;;;;;;;;;;4957909;28;19965;-88
2023/03/26 11:16:25;;;;;;;;;;;;;;;;;;4957037;28;20285;-88
2023/03/26 11:18:54;;;;;;;;;;;;;;;;;;4957389;28;19922;-88
2023/03/26 11:21:22;;;;;;;;;;;;;;;;;;4975123;28;19956;-88
2023/03/26 11:23:47;;;;;;;;;;;;;;;;;;4960517;28;19914;-89
2023/03/26 11:26:13;;;;;;;;;;;;;;;;;;4978932;28;19914;-88
2023/03/26 11:28:40;;;;;;;;;;;;;;;;;;4954457;28;19946;-88
2023/03/26 11:31:12;;;;;;;;;;;;;;;;;;4985459;28;19914;-90
2023/03/26 11:33:39;;;;;;;;;;;;;;;;;;4952165;28;19914;-88
2023/03/26 11:36:04;;;;;;;;;;;;;;;;;;4953071;28;19918;-88
2023/03/26 11:38:31;;;;;;;;;;;;;;;;;;4972339;28;19937;-91
2023/03/26 11:40:57;;;;;;;;;;;;;;;;;;4959396;28;19937;-89
2023/03/26 11:43:36;;;;;;;;;;;;;;;;;;4945283;28;19921;-89
2023/03/26 11:46:04;;;;;;;;;;;;;;;;;;4957291;28;19918;-88
2023/03/26 11:48:30;;;;;;;;;;;;;;;;;;5000045;28;19981;-87
2023/03/26 11:50:59;;;;;;;;;;;;;;;;;;5000365;28;19903;-88
2023/03/26 11:53:24;;;;;;;;;;;;;;;;;;4999981;28;19929;-89
2023/03/26 11:55:59;;;;;;;;;;;;;;;;;;4998380;28;19918;-87
2023/03/26 11:58:34;;;;;;;;;;;;;;;;;;4965604;28;19921;-82
2023/03/26 12:00:59;;;;;;;;;;;;;;;;;;4984857;28;19962;-93
2023/03/26 12:03:29;;;;;;;;;;;;;;;;;;4966747;28;19921;-90
2023/03/26 12:05:54;;;;;;;;;;;;;;;;;;4946102;28;19992;-90
2023/03/26 12:11:23;;;;;;;;;;;;;;;;;;4968401;28;19914;-90
2023/03/26 12:13:51;;;;;;;;;;;;;;;;;;4967505;28;19933;-89
2023/03/26 12:16:20;;;;;;;;;;;;;;;;;;4947835;28;19922;-89
2023/03/26 12:18:51;;;;;;;;;;;;;;;;;;4969111;23;19909;-82
2023/03/26 12:21:18;;;;;;;;;;;;;;;;;;4952339;28;19902;-82
2023/03/26 12:23:44;;;;;;;;;;;;;;;;;;4984760;28;19914;-82
2023/03/26 12:26:13;;;;;;;;;;;;;;;;;;4983997;28;19898;-82
2023/03/26 12:28:39;;;;;;;;;;;;;;;;;;4983732;28;19914;-83
2023/03/26 12:31:07;;;;;;;;;;;;;;;;;;4982618;28;19933;-82
2023/03/26 12:33:33;;;;;;;;;;;;;;;;;;4967304;28;19938;-82
2023/03/26 12:35:59;;;;;;;;;;;;;;;;;;4999535;28;19958;-82
2023/03/26 12:38:27;;;;;;;;;;;;;;;;;;4982061;28;19922;-82
2023/03/26 12:40:56;;;;;;;;;;;;;;;;;;4979372;28;19918;-82
2023/03/26 12:43:22;;;;;;;;;;;;;;;;;;4964418;28;19910;-82
2023/03/26 12:45:48;;;;;;;;;;;;;;;;;;4999078;28;19920;-81
2023/03/26 12:48:15;;;;;;;;;;;;;;;;;;4962746;28;19918;-83
2023/03/26 12:58:41;;;;;;;;;;;;;;;;;;4997047;28;19926;-84
2023/03/26 13:01:10;;;;;;;;;;;;;;;;;;4961115;28;19914;-80
2023/03/26 13:03:42;;;;;;;;;;;;;;;;;;4960345;28;20405;-82
2023/03/26 13:06:08;;;;;;;;;;;;;;;;;;4961553;28;19914;-83
2023/03/26 13:08:35;;;;;;;;;;;;;;;;;;4959168;28;19924;-83
2023/03/26 13:11:04;;;;;;;;;;;;;;;;;;4943158;28;19980;-82
2023/03/26 13:13:33;;;;;;;;;;;;;;;;;;4958033;28;19938;-82
2023/03/26 13:16:05;;;;;;;;;;;;;;;;;;4959698;28;19925;-83
2023/03/26 13:18:31;;;;;;;;;;;;;;;;;;4956427;28;20429;-83
2023/03/26 13:20:58;;;;;;;;;;;;;;;;;;4971055;28;19914;-81
2023/03/26 13:23:26;;;;;;;;;;;;;;;;;;4968466;28;19914;-81
2023/03/26 13:25:51;;;;;;;;;;;;;;;;;;4950300;28;19921;-82
2023/03/26 13:28:19;;;;;;;;;;;;;;;;;;4951797;28;19914;-83
2023/03/26 13:30:45;;;;;;;;;;;;;;;;;;4957323;28;19918;-82
2023/03/26 13:33:11;;;;;;;;;;;;;;;;;;4971191;28;19921;-82
2023/03/26 13:35:37;;;;;;;;;;;;;;;;;;4956113;28;19920;-81
2023/03/26 13:38:03;;;;;;;;;;;;;;;;;;4986452;28;20403;-82
2023/03/26 13:40:29;;;;;;;;;;;;;;;;;;4971054;28;19914;-80
2023/03/26 13:42:55;;;;;;;;;;;;;;;;;;4969516;28;19914;-81
2023/03/26 13:45:21;;;;;;;;;;;;;;;;;;4953366;28;19914;-81
2023/03/26 13:47:47;;;;;;;;;;;;;;;;;;4969269;28;19914;-79
2023/03/26 13:50:14;;;;;;;;;;;;;;;;;;4948898;28;20354;-81
2023/03/26 13:52:40;;;;;;;;;;;;;;;;;;4967343;28;19942;-79
2023/03/26 13:55:06;;;;;;;;;;;;;;;;;;4949009;28;19914;-79
2023/03/26 13:57:33;;;;;;;;;;;;;;;;;;4965479;28;19926;-81
2023/03/26 14:00:03;;;;;;;;;;;;;;;;;;4934201;28;19976;-80
2023/03/26 14:02:37;;;;;;;;;;;;;;;;;;4949414;28;19922;-80
2023/03/26 14:05:03;;;;;;;;;;;;;;;;;;4947715;28;19914;-81
2023/03/26 14:07:30;;;;;;;;;;;;;;;;;;4964316;28;19925;-81
2023/03/26 14:09:55;;;;;;;;;;;;;;;;;;4962244;28;20420;-79
2023/03/26 14:12:21;;;;;;;;;;;;;;;;;;4962889;28;19914;-80
2023/03/26 14:14:53;;;;;;;;;;;;;;;;;;4948954;28;19953;-80
2023/03/26 14:17:21;;;;;;;;;;;;;;;;;;4948060;28;19918;-79
2023/03/26 14:19:49;;;;;;;;;;;;;;;;;;4947305;28;19918;-80
2023/03/26 14:22:17;;;;;;;;;;;;;;;;;;4933032;28;19957;-81
2023/03/26 14:24:59;;;;;;;;;;;;;;;;;;4947706;28;19976;-79
2023/03/26 14:27:34;;;;;;;;;;;;;;;;;;4930043;28;19997;-79
2023/03/26 14:30:25;;;;;;;;;;;;;;;;;;4948577;28;19915;-79
2023/03/26 14:33:12;;;;;;;;;;;;;;;;;;;;;
2023/03/26 14:35:49;;;;;;;;;;;;;;;;;;4950149;28;19974;-78
2023/03/26 14:38:15;;;;;;;;;;;;;;;;;;4961280;28;19914;-78
2023/03/26 14:40:40;;;;;;;;;;;;;;;;;;4960932;28;19932;-80
2023/03/26 14:43:06;;;;;;;;;;;;;;;;;;4960771;28;19914;-80
2023/03/26 14:45:32;;;;;;;;;;;;;;;;;;4960297;28;19915;-78
2023/03/26 14:47:57;;;;;;;;;;;;;;;;;;4960003;28;19915;-78
2023/03/26 14:50:27;;;;;;;;;;;;;;;;;;4961008;28;19914;-78
2023/03/26 14:52:52;;;;;;;;;;;;;;;;;;4944968;28;19921;-79
2023/03/26 14:55:18;;;;;;;;;;;;;;;;;;4944805;28;19914;-79
2023/03/26 14:57:44;;;;;;;;;;;;;;;;;;4944783;28;19918;-79
2023/03/26 15:00:14;;;;;;;;;;;;;;;;;;4962113;28;19910;-79
2023/03/26 15:02:39;;;;;;;;;;;;;;;;;;4962263;28;19918;-78
2023/03/26 15:05:06;;;;;;;;;;;;;;;;;;4945486;28;19925;-78
2023/03/26 15:07:32;;;;;;;;;;;;;;;;;;4946279;28;20377;-80
2023/03/26 15:09:57;;;;;;;;;;;;;;;;;;4948067;28;19921;-79
2023/03/26 15:12:23;;;;;;;;;;;;;;;;;;4962980;28;19921;-79
2023/03/26 15:14:49;;;;;;;;;;;;;;;;;;4964117;28;19983;-80
2023/03/26 15:17:14;;;;;;;;;;;;;;;;;;4962505;28;20065;-80
2023/03/26 15:19:40;;;;;;;;;;;;;;;;;;4964344;28;19914;-80
2023/03/26 15:22:06;;;;;;;;;;;;;;;;;;4947979;28;20358;-79
2023/03/26 15:24:31;;;;;;;;;;;;;;;;;;4964295;28;19981;-81
2023/03/26 15:27:00;;;;;;;;;;;;;;;;;;4947597;28;19915;-81
2023/03/26 15:29:29;;;;;;;;;;;;;;;;;;4949221;28;19982;-81
2023/03/26 15:31:55;;;;;;;;;;;;;;;;;;4948015;28;19953;-81
2023/03/26 15:34:22;;;;;;;;;;;;;;;;;;4964928;28;19921;-80
2023/03/26 15:36:49;;;;;;;;;;;;;;;;;;4948142;28;19957;-78
2023/03/26 15:39:15;;;;;;;;;;;;;;;;;;4964178;28;19914;-80
2023/03/26 15:41:41;;;;;;;;;;;;;;;;;;4982315;28;19918;-81
2023/03/26 15:44:06;;;;;;;;;;;;;;;;;;4966426;28;19963;-80
2023/03/26 15:46:34;;;;;;;;;;;;;;;;;;4966569;28;19910;-79
2023/03/26 15:49:00;;;;;;;;;;;;;;;;;;4967233;28;19914;-80
2023/03/26 15:51:26;;;;;;;;;;;;;;;;;;4988135;28;19921;-80
2023/03/26 15:53:52;;;;;;;;;;;;;;;;;;4970457;28;19922;-81
2023/03/26 15:56:18;;;;;;;;;;;;;;;;;;4938863;28;19989;-81
2023/03/26 15:58:44;;;;;;;;;;;;;;;;;;4972380;28;19922;-79
2023/03/26 16:01:17;;;;;;;;;;;;;;;;;;4941829;28;19969;-81
2023/03/26 16:03:46;;;;;;;;;;;;;;;;;;4970050;28;20065;-79
2023/03/26 16:06:13;;;;;;;;;;;;;;;;;;4970750;28;19978;-81
2023/03/26 16:08:38;;;;;;;;;;;;;;;;;;4956847;28;19910;-80
2023/03/26 16:11:07;;;;;;;;;;;;;;;;;;4973706;28;19921;-80
2023/03/26 16:13:33;;;;;;;;;;;;;;;;;;4975706;28;19949;-81
2023/03/26 16:15:58;;;;;;;;;;;;;;;;;;4974026;28;19925;-80
2023/03/26 16:18:24;;;;;;;;;;;;;;;;;;4959336;28;19914;-80
2023/03/26 16:20:52;;;;;;;;;;;;;;;;;;4959229;28;19914;-81
2023/03/26 16:23:18;;;;;;;;;;;;;;;;;;4958018;28;19915;-80
2023/03/26 16:25:44;;;;;;;;;;;;;;;;;;4959920;28;19921;-80
2023/03/26 16:28:09;;;;;;;;;;;;;;;;;;4974273;28;19918;-80
2023/03/26 16:30:35;;;;;;;;;;;;;;;;;;4938305;28;19925;-80
2023/03/26 16:33:02;;;;;;;;;;;;;;;;;;4954629;28;19934;-81
2023/03/26 16:35:28;;;;;;;;;;;;;;;;;;4970665;28;19914;-81
2023/03/26 16:37:56;;;;;;;;;;;;;;;;;;4955239;28;20041;-80
2023/03/26 16:40:22;;;;;;;;;;;;;;;;;;4967763;28;19914;-79
2023/03/26 16:42:47;;;;;;;;;;;;;;;;;;4967245;28;19920;-78
2023/03/26 16:45:13;;;;;;;;;;;;;;;;;;4966971;28;20317;-80
2023/03/26 16:47:39;;;;;;;;;;;;;;;;;;4982514;28;20302;-80
2023/03/26 16:50:09;;;;;;;;;;;;;;;;;;4969902;28;19914;-81
2023/03/26 16:52:35;;;;;;;;;;;;;;;;;;4983335;28;19953;-79
2023/03/26 16:55:01;;;;;;;;;;;;;;;;;;4965963;28;20008;-79
2023/03/26 16:57:26;;;;;;;;;;;;;;;;;;4963719;28;19919;-80
2023/03/26 16:59:55;;;;;;;;;;;;;;;;;;4963652;28;19918;-80
2023/03/26 17:02:21;;;;;;;;;;;;;;;;;;4948663;28;19914;-81
2023/03/26 17:04:47;;;;;;;;;;;;;;;;;;4947805;28;19921;-80
2023/03/26 17:07:12;;;;;;;;;;;;;;;;;;4963697;28;19920;-81
2023/03/26 17:09:38;;;;;;;;;;;;;;;;;;4948594;28;20343;-80
2023/03/26 17:12:04;;;;;;;;;;;;;;;;;;4964922;28;19914;-80
2023/03/26 17:14:30;;;;;;;;;;;;;;;;;;4966576;28;19914;-80
2023/03/26 17:16:58;;;;;;;;;;;;;;;;;;4967684;28;19925;-81
2023/03/26 17:19:28;;;;;;;;;;;;;;;;;;4969972;28;19965;-80
2023/03/26 17:21:56;;;;;;;;;;;;;;;;;;4972902;28;19918;-80
2023/03/26 17:24:22;;;;;;;;;;;;;;;;;;4955493;28;19910;-79
2023/03/26 17:27:01;;;;;;;;;;;;;;;;;;4957490;28;19914;-79
2023/03/26 17:29:27;;;;;;;;;;;;;;;;;;4972659;28;20260;-80
2023/03/26 17:31:53;;;;;;;;;;;;;;;;;;4956347;28;19914;-79
2023/03/26 17:34:18;;;;;;;;;;;;;;;;;;4970772;28;19941;-79